Time;durP1;ratioP1;P1;durP2;ratioP2;P2;SDS_P1;SDS_P2;PMS_P1;PMS_P2;Temp;Humidity;BMP_temperature;BMP_pressure;BME280_temperature;BME280_humidity;BME280_pressure;Samples;Min_cycle;Max_cycle;Signal;HPM_P1;HPM_P2
2024/03/14 00:00:55;;;;;;;8.07;6.32;;;;;;;;;;6247468;22;20020;-71
2024/03/14 00:03:22;;;;;;;10.02;6.55;;;;;;;;;;6220654;22;20019;-71
2024/03/14 00:05:47;;;;;;;9.23;6.25;;;;;;;;;;6272265;22;20467;-72
2024/03/14 00:08:14;;;;;;;8.40;6.25;;;;;;;;;;6274119;22;20008;-73
2024/03/14 00:10:40;;;;;;;7.97;5.57;;;;;;;;;;6274208;22;20027;-72
2024/03/14 00:13:07;;;;;;;5.03;4.32;;;;;;;;;;6272749;22;20024;-73
2024/03/14 00:15:32;;;;;;;7.43;4.70;;;;;;;;;;6273619;22;20018;-73
2024/03/14 00:17:58;;;;;;;9.80;6.60;;;;;;;;;;6272463;22;20015;-73
2024/03/14 00:20:24;;;;;;;9.00;6.25;;;;;;;;;;6274040;22;20081;-73
2024/03/14 00:22:50;;;;;;;11.05;6.10;;;;;;;;;;6271503;22;20015;-73
2024/03/14 00:25:16;;;;;;;7.60;6.22;;;;;;;;;;6301227;22;20520;-72
2024/03/14 00:27:43;;;;;;;6.68;5.80;;;;;;;;;;6278470;22;20003;-73
2024/03/14 00:30:16;;;;;;;7.55;6.05;;;;;;;;;;6282175;22;20015;-72
2024/03/14 00:32:42;;;;;;;10.13;6.47;;;;;;;;;;6276750;22;20026;-72
2024/03/14 00:35:08;;;;;;;6.53;5.93;;;;;;;;;;6275472;22;20035;-73
2024/03/14 00:37:35;;;;;;;10.45;5.95;;;;;;;;;;6273657;22;20037;-73
2024/03/14 00:40:01;;;;;;;10.50;5.85;;;;;;;;;;6273840;22;20072;-72
2024/03/14 00:42:29;;;;;;;7.85;6.45;;;;;;;;;;6272458;22;20061;-73
2024/03/14 00:44:55;;;;;;;8.68;6.03;;;;;;;;;;6272343;22;20031;-73
2024/03/14 00:47:21;;;;;;;11.48;7.05;;;;;;;;;;6273245;22;20015;-73
2024/03/14 00:49:48;;;;;;;5.75;5.15;;;;;;;;;;6273914;22;20011;-74
2024/03/14 00:52:14;;;;;;;5.35;4.75;;;;;;;;;;6270742;22;20022;-74
2024/03/14 00:54:40;;;;;;;7.18;6.47;;;;;;;;;;6274929;22;20039;-73
2024/03/14 00:57:06;;;;;;;9.45;5.15;;;;;;;;;;6297584;22;20015;-74
2024/03/14 00:59:33;;;;;;;8.43;6.82;;;;;;;;;;6274289;22;20023;-75
2024/03/14 01:01:59;;;;;;;13.20;10.43;;;;;;;;;;6270741;22;20007;-73
2024/03/14 01:04:27;;;;;;;10.32;6.43;;;;;;;;;;6271083;22;20043;-73
2024/03/14 01:06:53;;;;;;;13.30;9.02;;;;;;;;;;6273228;22;20022;-73
2024/03/14 01:09:24;;;;;;;13.65;9.52;;;;;;;;;;6271283;22;20039;-73
2024/03/14 01:11:52;;;;;;;14.43;8.05;;;;;;;;;;6272017;22;20484;-73
2024/03/14 01:14:18;;;;;;;11.35;7.95;;;;;;;;;;6297259;22;20012;-73
2024/03/14 01:16:44;;;;;;;20.08;7.75;;;;;;;;;;6246168;22;20012;-73
2024/03/14 01:19:11;;;;;;;8.63;6.40;;;;;;;;;;6272846;22;20498;-72
2024/03/14 01:21:39;;;;;;;12.93;7.70;;;;;;;;;;6272390;22;20023;-72
2024/03/14 01:24:05;;;;;;;11.68;8.00;;;;;;;;;;6272136;22;20019;-73
2024/03/14 01:26:32;;;;;;;14.73;9.10;;;;;;;;;;6271395;22;20018;-72
2024/03/14 01:28:58;;;;;;;11.27;9.05;;;;;;;;;;6273338;22;20054;-72
2024/03/14 01:31:24;;;;;;;14.30;9.05;;;;;;;;;;6271199;22;20337;-72
2024/03/14 01:33:51;;;;;;;14.15;9.38;;;;;;;;;;6270649;22;20026;-73
2024/03/14 01:36:17;;;;;;;12.90;8.18;;;;;;;;;;6247040;22;20017;-72
2024/03/14 01:38:42;;;;;;;16.15;8.77;;;;;;;;;;6274484;22;20046;-71
2024/03/14 01:41:15;;;;;;;13.90;5.97;;;;;;;;;;6273998;22;20445;-72
2024/03/14 01:43:41;;;;;;;12.80;7.47;;;;;;;;;;6256063;22;20011;-73
2024/03/14 01:46:07;;;;;;;16.15;10.00;;;;;;;;;;6245581;22;20011;-72
2024/03/14 01:48:32;;;;;;;13.65;7.82;;;;;;;;;;6272663;22;20012;-72
2024/03/14 01:50:58;;;;;;;14.77;8.52;;;;;;;;;;6273036;22;20072;-72
2024/03/14 01:53:27;;;;;;;12.15;6.22;;;;;;;;;;6273003;22;20081;-72
2024/03/14 01:55:53;;;;;;;15.45;9.68;;;;;;;;;;6272919;22;20404;-73
2024/03/14 01:58:22;;;;;;;11.75;7.40;;;;;;;;;;6246197;22;20403;-73
2024/03/14 02:00:48;;;;;;;9.07;7.35;;;;;;;;;;6248600;22;20132;-73
2024/03/14 02:03:14;;;;;;;12.45;8.40;;;;;;;;;;6275323;22;20492;-72
2024/03/14 02:05:44;;;;;;;10.85;8.07;;;;;;;;;;6276050;22;20028;-74
2024/03/14 02:08:10;;;;;;;11.20;7.93;;;;;;;;;;6274970;22;20007;-73
2024/03/14 02:10:39;;;;;;;12.48;8.13;;;;;;;;;;6274705;22;20462;-72
2024/03/14 02:13:05;;;;;;;15.63;7.38;;;;;;;;;;6244951;22;20070;-73
2024/03/14 02:15:31;;;;;;;9.38;7.45;;;;;;;;;;6274157;22;20038;-73
2024/03/14 02:17:57;;;;;;;15.82;10.30;;;;;;;;;;6274974;22;20015;-72
2024/03/14 02:20:26;;;;;;;13.98;9.48;;;;;;;;;;6247338;22;20510;-73
2024/03/14 02:22:52;;;;;;;11.13;9.63;;;;;;;;;;6273767;22;20456;-73
2024/03/14 02:25:18;;;;;;;15.45;11.40;;;;;;;;;;6247632;22;20440;-72
2024/03/14 02:27:44;;;;;;;13.82;10.15;;;;;;;;;;6272881;22;20003;-73
2024/03/14 02:30:11;;;;;;;18.50;7.97;;;;;;;;;;6274722;22;20401;-72
2024/03/14 02:32:36;;;;;;;21.40;12.13;;;;;;;;;;6273291;22;20392;-72
2024/03/14 02:35:03;;;;;;;17.95;9.50;;;;;;;;;;6272987;22;20133;-72
2024/03/14 02:37:32;;;;;;;18.50;11.57;;;;;;;;;;6247342;22;20014;-73
2024/03/14 02:39:58;;;;;;;7.47;6.40;;;;;;;;;;6274320;22;20031;-73
2024/03/14 02:42:24;;;;;;;12.52;8.25;;;;;;;;;;6297195;22;20011;-73
2024/03/14 02:44:50;;;;;;;14.50;9.63;;;;;;;;;;6273221;22;20341;-73
2024/03/14 02:47:17;;;;;;;18.95;12.18;;;;;;;;;;6247401;22;20014;-73
2024/03/14 02:49:43;;;;;;;19.40;9.55;;;;;;;;;;6222702;22;20452;-71
2024/03/14 02:52:09;;;;;;;14.25;8.95;;;;;;;;;;6274517;22;20042;-72
2024/03/14 02:54:35;;;;;;;17.73;9.13;;;;;;;;;;6247063;22;20019;-73
2024/03/14 02:57:00;;;;;;;16.70;9.73;;;;;;;;;;6272260;22;20360;-73
2024/03/14 02:59:27;;;;;;;24.17;12.98;;;;;;;;;;6246657;22;20031;-73
2024/03/14 03:01:53;;;;;;;20.45;12.55;;;;;;;;;;6272483;22;20007;-73
2024/03/14 03:04:19;;;;;;;27.77;13.93;;;;;;;;;;6246526;22;20506;-73
2024/03/14 03:06:48;;;;;;;35.05;17.70;;;;;;;;;;6272705;22;20031;-73
2024/03/14 03:09:18;;;;;;;16.10;9.18;;;;;;;;;;6247583;22;20011;-73
2024/03/14 03:11:43;;;;;;;26.70;13.68;;;;;;;;;;6271224;22;20479;-73
2024/03/14 03:14:09;;;;;;;20.90;11.35;;;;;;;;;;6247505;22;20028;-73
2024/03/14 03:16:37;;;;;;;8.75;7.47;;;;;;;;;;6272312;22;20022;-73
2024/03/14 03:19:04;;;;;;;15.02;9.48;;;;;;;;;;6272435;22;20030;-73
2024/03/14 03:21:33;;;;;;;16.88;8.95;;;;;;;;;;6271757;22;20014;-74
2024/03/14 03:23:59;;;;;;;13.00;8.55;;;;;;;;;;6271267;22;20034;-74
2024/03/14 03:26:25;;;;;;;13.25;9.70;;;;;;;;;;6246345;22;20008;-74
2024/03/14 03:28:51;;;;;;;13.48;9.02;;;;;;;;;;6272589;22;20012;-74
2024/03/14 03:31:17;;;;;;;13.95;9.35;;;;;;;;;;6297847;22;20024;-74
2024/03/14 03:33:43;;;;;;;8.77;7.13;;;;;;;;;;6271514;22;20341;-73
2024/03/14 03:36:09;;;;;;;12.43;8.32;;;;;;;;;;6221688;22;20187;-73
2024/03/14 03:38:38;;;;;;;16.70;12.07;;;;;;;;;;6272042;22;20051;-74
2024/03/14 03:41:06;;;;;;;12.02;9.15;;;;;;;;;;6271401;22;20015;-74
2024/03/14 03:43:32;;;;;;;15.38;9.95;;;;;;;;;;6272533;22;20555;-74
2024/03/14 03:45:58;;;;;;;21.73;11.82;;;;;;;;;;6271573;22;20593;-74
2024/03/14 03:48:24;;;;;;;8.63;7.10;;;;;;;;;;6273680;22;20012;-76
2024/03/14 03:50:51;;;;;;;15.93;9.82;;;;;;;;;;6249240;22;20467;-74
2024/03/14 03:53:18;;;;;;;8.77;6.43;;;;;;;;;;6273399;22;20024;-74
2024/03/14 03:55:44;;;;;;;17.52;11.00;;;;;;;;;;6273571;22;20018;-74
2024/03/14 03:58:11;;;;;;;15.43;9.68;;;;;;;;;;6272290;22;20043;-74
2024/03/14 04:00:44;;;;;;;22.02;12.25;;;;;;;;;;6273630;22;20028;-74
2024/03/14 04:03:14;;;;;;;10.98;8.00;;;;;;;;;;6272554;22;20094;-73
2024/03/14 04:05:42;;;;;;;12.27;9.25;;;;;;;;;;6273510;22;20026;-73
2024/03/14 04:08:08;;;;;;;8.93;6.97;;;;;;;;;;6271984;22;20106;-74
2024/03/14 04:10:34;;;;;;;25.45;13.52;;;;;;;;;;6272942;22;20027;-74
2024/03/14 04:13:00;;;;;;;22.90;13.07;;;;;;;;;;6270810;22;20031;-74
2024/03/14 04:15:30;;;;;;;31.52;18.67;;;;;;;;;;6271753;22;20723;-73
2024/03/14 04:17:56;;;;;;;29.23;16.08;;;;;;;;;;6247665;22;20034;-73
2024/03/14 04:20:27;;;;;;;31.15;16.50;;;;;;;;;;6246367;22;20019;-73
2024/03/14 04:22:54;;;;;;;24.13;12.35;;;;;;;;;;6270055;22;20015;-73
2024/03/14 04:25:20;;;;;;;23.75;13.60;;;;;;;;;;6271106;22;20022;-74
2024/03/14 04:27:47;;;;;;;28.98;15.82;;;;;;;;;;6273126;22;20110;-74
2024/03/14 04:30:23;;;;;;;26.30;16.23;;;;;;;;;;6220045;22;20011;-73
2024/03/14 04:32:49;;;;;;;20.52;12.68;;;;;;;;;;6272749;22;20475;-74
2024/03/14 04:35:15;;;;;;;22.73;12.43;;;;;;;;;;6247512;22;20015;-74
2024/03/14 04:37:42;;;;;;;33.13;18.00;;;;;;;;;;6275371;22;20014;-73
2024/03/14 04:40:12;;;;;;;25.73;13.52;;;;;;;;;;6251391;22;20019;-74
2024/03/14 04:42:40;;;;;;;30.80;17.60;;;;;;;;;;6271401;22;20026;-73
2024/03/14 04:45:09;;;;;;;30.10;19.48;;;;;;;;;;6272571;22;20018;-73
2024/03/14 04:47:36;;;;;;;26.08;16.38;;;;;;;;;;6271725;22;20011;-73
2024/03/14 04:50:02;;;;;;;27.95;16.40;;;;;;;;;;6275017;22;20012;-74
2024/03/14 04:52:28;;;;;;;22.20;13.13;;;;;;;;;;6270125;22;20015;-74
2024/03/14 04:54:54;;;;;;;25.10;13.95;;;;;;;;;;6267953;22;20011;-72
2024/03/14 04:57:21;;;;;;;24.75;14.40;;;;;;;;;;6272124;22;20035;-71
2024/03/14 04:59:48;;;;;;;10.90;6.07;;;;;;;;;;6270371;22;20048;-72
2024/03/14 05:02:14;;;;;;;11.55;10.23;;;;;;;;;;6269338;22;20031;-72
2024/03/14 05:04:40;;;;;;;20.25;12.93;;;;;;;;;;6244581;22;20019;-72
2024/03/14 05:07:06;;;;;;;18.67;11.48;;;;;;;;;;6271346;22;20015;-71
2024/03/14 05:09:33;;;;;;;9.63;7.15;;;;;;;;;;6271936;22;20348;-72
2024/03/14 05:12:02;;;;;;;17.30;10.50;;;;;;;;;;6268878;22;20446;-73
2024/03/14 05:14:28;;;;;;;6.75;6.03;;;;;;;;;;6244644;22;20008;-71
2024/03/14 05:16:54;;;;;;;11.93;8.02;;;;;;;;;;6295222;22;20012;-72
2024/03/14 05:19:23;;;;;;;27.52;14.35;;;;;;;;;;6271348;22;20027;-73
2024/03/14 05:21:50;;;;;;;18.80;11.95;;;;;;;;;;6270368;22;20015;-72
2024/03/14 05:24:16;;;;;;;16.10;11.57;;;;;;;;;;6244369;22;20011;-72
2024/03/14 05:26:42;;;;;;;24.23;11.43;;;;;;;;;;6271615;22;20057;-71
2024/03/14 05:29:08;;;;;;;19.20;11.27;;;;;;;;;;6244956;22;20391;-72
2024/03/14 05:31:37;;;;;;;23.85;12.95;;;;;;;;;;6270848;22;20008;-73
2024/03/14 05:34:03;;;;;;;24.27;14.43;;;;;;;;;;6268309;22;20030;-71
2024/03/14 05:36:29;;;;;;;17.80;11.30;;;;;;;;;;6268659;22;20347;-72
2024/03/14 05:38:55;;;;;;;13.82;10.85;;;;;;;;;;6244640;22;20027;-73
2024/03/14 05:41:20;;;;;;;14.82;11.00;;;;;;;;;;6271246;22;20353;-77
2024/03/14 05:43:47;;;;;;;36.65;13.23;;;;;;;;;;6243650;22;20625;-77
2024/03/14 05:46:14;;;;;;;19.75;10.93;;;;;;;;;;6270380;22;20061;-74
2024/03/14 05:48:39;;;;;;;17.45;12.88;;;;;;;;;;6273676;22;20110;-75
2024/03/14 05:51:09;;;;;;;11.43;10.07;;;;;;;;;;6273492;22;20369;-73
2024/03/14 05:53:35;;;;;;;21.50;11.75;;;;;;;;;;6245854;22;20146;-75
2024/03/14 05:56:02;;;;;;;17.08;12.05;;;;;;;;;;6273337;22;20447;-77
2024/03/14 05:58:33;;;;;;;14.75;10.80;;;;;;;;;;6272263;22;20008;-77
2024/03/14 06:01:17;;;;;;;26.35;13.25;;;;;;;;;;6220159;22;20027;-77
2024/03/14 06:03:46;;;;;;;31.00;18.80;;;;;;;;;;6220180;22;20012;-77
2024/03/14 06:06:26;;;;;;;19.63;13.27;;;;;;;;;;6246237;22;20418;-78
2024/03/14 06:09:12;;;;;;;28.88;17.42;;;;;;;;;;6224061;22;20337;-78
2024/03/14 06:11:38;;;;;;;29.88;16.58;;;;;;;;;;6247206;22;20061;-78
2024/03/14 06:14:04;;;;;;;34.72;19.38;;;;;;;;;;6220590;22;20020;-77
2024/03/14 06:16:31;;;;;;;20.35;14.95;;;;;;;;;;6197046;22;20482;-78
2024/03/14 06:18:58;;;;;;;29.52;17.65;;;;;;;;;;6223283;22;20015;-78
2024/03/14 06:21:27;;;;;;;33.10;19.77;;;;;;;;;;6197554;22;20047;-78
2024/03/14 06:23:55;;;;;;;35.47;19.15;;;;;;;;;;6273446;22;20012;-77
2024/03/14 06:26:46;;;;;;;31.55;17.15;;;;;;;;;;6252940;22;20018;-77
2024/03/14 06:29:29;;;;;;;29.75;16.20;;;;;;;;;;6228941;22;20098;-78
2024/03/14 06:32:21;;;;;;;;;;;;;;;;;;6251805;22;20492;-78
2024/03/14 06:34:48;;;;;;;36.40;20.58;;;;;;;;;;6247365;22;19911;-78
2024/03/14 06:37:16;;;;;;;29.08;17.55;;;;;;;;;;6197490;22;20012;-79
2024/03/14 06:39:45;;;;;;;28.90;17.42;;;;;;;;;;6197955;22;20107;-78
2024/03/14 06:42:11;;;;;;;22.30;16.40;;;;;;;;;;6271090;22;20074;-78
2024/03/14 06:44:37;;;;;;;26.15;16.27;;;;;;;;;;6197980;22;20016;-78
2024/03/14 06:47:09;;;;;;;25.92;16.20;;;;;;;;;;6199035;22;20022;-77
2024/03/14 06:49:38;;;;;;;24.67;15.55;;;;;;;;;;6247860;22;20345;-78
2024/03/14 06:52:06;;;;;;;24.65;14.85;;;;;;;;;;6196030;22;20118;-76
2024/03/14 06:54:33;;;;;;;22.05;13.52;;;;;;;;;;6223206;22;20012;-78
2024/03/14 06:57:00;;;;;;;24.75;14.40;;;;;;;;;;6197566;22;20423;-78
2024/03/14 06:59:37;;;;;;;16.08;11.77;;;;;;;;;;6225910;22;20020;-78
2024/03/14 07:02:04;;;;;;;22.23;14.80;;;;;;;;;;6195017;22;20069;-77
2024/03/14 07:04:37;;;;;;;21.05;14.32;;;;;;;;;;6197005;22;20018;-78
2024/03/14 07:07:03;;;;;;;26.20;11.88;;;;;;;;;;6272638;22;20016;-78
2024/03/14 07:09:30;;;;;;;21.17;13.75;;;;;;;;;;6222365;22;20007;-77
2024/03/14 07:12:00;;;;;;;15.43;11.13;;;;;;;;;;6183414;22;20065;-78
2024/03/14 07:14:29;;;;;;;16.63;12.43;;;;;;;;;;6198203;22;20106;-77
2024/03/14 07:16:57;;;;;;;;;;;;;;;;;;6223607;22;20108;-78
2024/03/14 07:19:23;;;;;;;20.55;12.20;;;;;;;;;;6247270;22;20351;-77
2024/03/14 07:21:59;;;;;;;18.35;13.20;;;;;;;;;;6220842;22;20008;-77
2024/03/14 07:24:25;;;;;;;20.83;13.27;;;;;;;;;;6199567;22;20015;-77
2024/03/14 07:26:54;;;;;;;20.25;12.60;;;;;;;;;;6199282;22;20036;-78
2024/03/14 07:29:47;;;;;;;30.83;11.43;;;;;;;;;;6205016;22;20440;-77
2024/03/14 07:32:16;;;;;;;18.98;12.13;;;;;;;;;;6257907;22;20015;-78
2024/03/14 07:35:04;;;;;;;22.75;13.75;;;;;;;;;;6259940;22;20016;-78
2024/03/14 07:37:30;;;;;;;25.85;14.10;;;;;;;;;;6197536;22;20007;-78
2024/03/14 07:39:56;;;;;;;24.42;14.77;;;;;;;;;;6196792;22;20094;-78
2024/03/14 07:42:22;;;;;;;19.75;13.68;;;;;;;;;;6195350;22;20042;-79
2024/03/14 07:44:51;;;;;;;22.35;13.63;;;;;;;;;;6222393;22;20023;-77
2024/03/14 07:47:25;;;;;;;24.30;13.98;;;;;;;;;;6200155;22;20007;-78
2024/03/14 07:49:52;;;;;;;25.55;13.05;;;;;;;;;;6248536;22;20160;-80
2024/03/14 07:52:17;;;;;;;24.10;13.27;;;;;;;;;;6220770;22;20018;-78
2024/03/14 07:57:29;;;;;;;20.17;12.85;;;;;;;;;;6226178;22;20507;-79
2024/03/14 08:00:01;;;;;;;20.13;13.30;;;;;;;;;;6196745;22;20023;-79
2024/03/14 08:02:33;;;;;;;18.58;12.75;;;;;;;;;;6270987;22;20015;-79
2024/03/14 08:05:04;;;;;;;17.58;12.60;;;;;;;;;;6197044;22;20020;-79
2024/03/14 08:07:31;;;;;;;17.33;12.38;;;;;;;;;;6221892;22;20015;-79
2024/03/14 08:09:57;;;;;;;23.85;11.43;;;;;;;;;;6273549;22;20061;-79
2024/03/14 08:12:31;;;;;;;17.45;11.20;;;;;;;;;;6196775;22;20018;-80
2024/03/14 08:15:16;;;;;;;20.20;12.02;;;;;;;;;;6225342;22;20468;-79
2024/03/14 08:17:46;;;;;;;18.20;12.07;;;;;;;;;;6222760;22;20007;-79
2024/03/14 08:20:15;;;;;;;20.73;12.25;;;;;;;;;;6221715;22;20041;-79
2024/03/14 08:22:43;;;;;;;14.85;11.43;;;;;;;;;;6246170;22;20023;-78
2024/03/14 08:25:15;;;;;;;17.05;12.05;;;;;;;;;;6196930;22;20015;-79
2024/03/14 08:27:43;;;;;;;13.90;11.07;;;;;;;;;;6246999;22;20015;-79
2024/03/14 08:30:10;;;;;;;22.75;13.65;;;;;;;;;;6221911;22;20011;-80
2024/03/14 08:32:38;;;;;;;10.85;9.75;;;;;;;;;;6157927;23;20540;-80
2024/03/14 08:35:05;;;;;;;12.30;10.65;;;;;;;;;;6190594;23;20038;-77
2024/03/14 08:37:58;;;;;;;20.52;10.55;;;;;;;;;;6064472;23;20015;-78
2024/03/14 08:40:24;;;;;;;15.52;11.80;;;;;;;;;;6064479;23;20029;-79
2024/03/14 08:42:49;;;;;;;14.90;10.52;;;;;;;;;;6063256;23;20022;-79
2024/03/14 08:45:15;;;;;;;14.27;10.77;;;;;;;;;;6090996;23;20014;-80
2024/03/14 08:47:42;;;;;;;13.68;10.90;;;;;;;;;;6088184;23;20038;-80
2024/03/14 08:50:13;;;;;;;18.55;10.55;;;;;;;;;;6088953;23;20043;-81
2024/03/14 08:52:39;;;;;;;7.75;6.95;;;;;;;;;;6098474;23;20467;-80
2024/03/14 08:55:25;;;;;;;13.27;10.05;;;;;;;;;;6175391;22;20139;-79
2024/03/14 08:58:09;;;;;;;13.27;9.63;;;;;;;;;;6054938;23;20104;-79
2024/03/14 09:00:42;;;;;;;11.30;9.20;;;;;;;;;;6071128;23;20022;-79
2024/03/14 09:03:08;;;;;;;15.30;11.20;;;;;;;;;;6155429;22;20018;-78
2024/03/14 09:05:39;;;;;;;12.73;10.45;;;;;;;;;;6186656;23;20026;-75
2024/03/14 09:08:05;;;;;;;;;;;;;;;;;;6063759;23;20014;-76
2024/03/14 09:10:33;;;;;;;19.23;9.88;;;;;;;;;;6060875;23;20262;-75
2024/03/14 09:12:59;;;;;;;14.55;9.00;;;;;;;;;;6217840;22;20389;-75
2024/03/14 09:15:25;;;;;;;12.55;10.00;;;;;;;;;;6140361;23;20101;-77
2024/03/14 09:18:17;;;;;;;12.10;9.18;;;;;;;;;;6097181;23;20021;-76
2024/03/14 09:20:48;;;;;;;16.77;9.05;;;;;;;;;;6091832;23;20230;-77
2024/03/14 09:23:33;;;;;;;14.43;9.25;;;;;;;;;;6036847;23;20374;-78
2024/03/14 09:25:59;;;;;;;10.20;8.63;;;;;;;;;;6117870;23;20075;-78
2024/03/14 09:28:27;;;;;;;15.05;9.82;;;;;;;;;;6172641;23;20010;-77
2024/03/14 09:30:57;;;;;;;14.88;9.23;;;;;;;;;;6119911;23;20021;-77
2024/03/14 09:33:27;;;;;;;12.57;9.60;;;;;;;;;;6091753;22;20032;-77
2024/03/14 09:35:53;;;;;;;13.23;9.98;;;;;;;;;;6044534;23;20021;-78
2024/03/14 09:38:19;;;;;;;16.98;10.10;;;;;;;;;;6067829;23;20018;-76
2024/03/14 09:40:45;;;;;;;14.73;10.10;;;;;;;;;;6118080;23;20561;-74
2024/03/14 09:43:13;;;;;;;10.52;9.38;;;;;;;;;;6211679;22;20020;-74
2024/03/14 09:45:42;;;;;;;9.95;8.98;;;;;;;;;;6270944;22;20012;-75
2024/03/14 09:48:10;;;;;;;15.60;9.85;;;;;;;;;;6270634;22;20355;-77
2024/03/14 09:51:07;;;;;;;12.05;8.32;;;;;;;;;;6270856;22;20448;-76
2024/03/14 09:53:38;;;;;;;16.65;10.90;;;;;;;;;;6268382;22;20090;-76
2024/03/14 09:56:04;;;;;;;11.55;8.13;;;;;;;;;;6219781;22;20066;-75
2024/03/14 09:58:31;;;;;;;12.23;8.98;;;;;;;;;;6194678;22;20018;-76
2024/03/14 10:00:57;;;;;;;17.52;10.68;;;;;;;;;;6194266;22;20047;-77
2024/03/14 10:03:24;;;;;;;13.45;9.90;;;;;;;;;;6217936;22;20020;-75
2024/03/14 10:05:52;;;;;;;11.85;9.77;;;;;;;;;;6219050;22;20090;-76
2024/03/14 10:08:21;;;;;;;11.52;8.85;;;;;;;;;;6244304;22;20015;-77
2024/03/14 10:10:49;;;;;;;9.82;7.13;;;;;;;;;;6218809;22;20456;-74
2024/03/14 10:13:28;;;;;;;10.57;7.97;;;;;;;;;;6192417;22;20015;-77
2024/03/14 10:16:00;;;;;;;12.02;8.00;;;;;;;;;;6195040;22;20075;-76
2024/03/14 10:18:29;;;;;;;13.63;7.85;;;;;;;;;;6220741;22;20050;-76
2024/03/14 10:20:55;;;;;;;9.23;6.60;;;;;;;;;;6194726;22;20491;-76
2024/03/14 10:23:21;;;;;;;10.00;6.72;;;;;;;;;;6193684;22;20016;-76
2024/03/14 10:25:53;;;;;;;7.70;6.85;;;;;;;;;;6220837;22;20486;-76
2024/03/14 10:28:20;;;;;;;10.93;7.22;;;;;;;;;;6245613;22;20096;-76
2024/03/14 10:30:49;;;;;;;22.90;6.88;;;;;;;;;;6196258;22;20482;-76
2024/03/14 10:33:21;;;;;;;10.85;8.50;;;;;;;;;;6295401;22;20095;-76
2024/03/14 10:35:48;;;;;;;10.30;7.28;;;;;;;;;;6195862;22;20014;-76
2024/03/14 10:38:15;;;;;;;8.68;7.05;;;;;;;;;;6197383;22;20117;-76
2024/03/14 10:40:44;;;;;;;9.13;6.70;;;;;;;;;;6224818;22;20015;-75
2024/03/14 10:43:10;;;;;;;9.75;8.05;;;;;;;;;;6165645;22;20018;-76
2024/03/14 10:45:36;;;;;;;9.68;7.60;;;;;;;;;;6064636;23;20455;-76
2024/03/14 10:48:03;;;;;;;10.18;7.43;;;;;;;;;;6064748;23;20097;-76
2024/03/14 10:50:30;;;;;;;13.32;8.30;;;;;;;;;;6065037;23;20022;-76
2024/03/14 10:52:56;;;;;;;9.85;7.75;;;;;;;;;;6077897;23;20352;-76
2024/03/14 10:55:23;;;;;;;8.35;6.85;;;;;;;;;;6069850;23;20041;-76
2024/03/14 10:57:50;;;;;;;9.52;6.90;;;;;;;;;;6069875;23;20040;-76
2024/03/14 11:00:17;;;;;;;10.10;7.10;;;;;;;;;;6093423;23;20022;-76
2024/03/14 11:02:47;;;;;;;10.15;9.10;;;;;;;;;;6107823;22;20015;-76
2024/03/14 11:05:18;;;;;;;9.57;8.20;;;;;;;;;;6199717;22;20058;-76
2024/03/14 11:07:53;;;;;;;10.68;6.72;;;;;;;;;;6247026;22;20008;-74
2024/03/14 11:10:24;;;;;;;10.15;7.43;;;;;;;;;;6247144;22;20045;-76
2024/03/14 11:12:52;;;;;;;9.43;6.80;;;;;;;;;;6205141;22;20012;-75
2024/03/14 11:15:21;;;;;;;8.77;7.22;;;;;;;;;;6197240;22;20039;-76
2024/03/14 11:17:56;;;;;;;11.18;8.35;;;;;;;;;;6223367;22;20008;-76
2024/03/14 11:20:28;;;;;;;10.25;7.43;;;;;;;;;;6249017;22;20106;-76
2024/03/14 11:22:58;;;;;;;10.65;7.05;;;;;;;;;;6195385;22;20479;-76
2024/03/14 11:25:24;;;;;;;11.20;7.03;;;;;;;;;;6197245;22;20307;-75
2024/03/14 11:27:51;;;;;;;9.82;6.68;;;;;;;;;;6196530;22;20011;-76
2024/03/14 11:30:19;;;;;;;9.35;7.40;;;;;;;;;;6222103;22;20436;-76
2024/03/14 11:32:54;;;;;;;6.95;6.10;;;;;;;;;;6164447;22;20105;-75
2024/03/14 11:35:34;;;;;;;8.20;6.82;;;;;;;;;;6192252;23;20020;-76
2024/03/14 11:38:04;;;;;;;7.93;6.68;;;;;;;;;;6191231;23;20014;-76
2024/03/14 11:40:32;;;;;;;7.80;6.60;;;;;;;;;;6068242;23;20029;-75
2024/03/14 11:43:01;;;;;;;8.25;6.55;;;;;;;;;;6070993;23;20020;-76
2024/03/14 11:45:31;;;;;;;8.00;6.85;;;;;;;;;;6049731;23;20018;-76
2024/03/14 11:47:57;;;;;;;8.25;7.18;;;;;;;;;;6088661;23;20014;-76
2024/03/14 11:50:33;;;;;;;6.05;5.20;;;;;;;;;;6040917;23;20463;-76
2024/03/14 11:53:00;;;;;;;9.00;6.53;;;;;;;;;;6111188;23;20529;-76
2024/03/14 11:55:29;;;;;;;8.60;6.18;;;;;;;;;;6041103;23;20014;-75
2024/03/14 11:58:13;;;;;;;9.00;5.32;;;;;;;;;;6040571;23;20110;-76
2024/03/14 12:00:42;;;;;;;12.07;7.10;;;;;;;;;;6064509;23;20022;-76
2024/03/14 12:03:11;;;;;;;13.05;6.68;;;;;;;;;;6078864;23;20405;-76
2024/03/14 12:05:42;;;;;;;10.60;7.13;;;;;;;;;;6093716;23;20121;-76
2024/03/14 12:08:10;;;;;;;8.18;5.97;;;;;;;;;;6094264;23;20047;-77
2024/03/14 12:10:40;;;;;;;6.10;5.28;;;;;;;;;;6069329;23;20010;-77
2024/03/14 12:13:19;;;;;;;6.65;5.80;;;;;;;;;;6038736;23;20018;-77
2024/03/14 12:15:45;;;;;;;8.18;5.40;;;;;;;;;;6217060;23;20018;-76
2024/03/14 12:18:18;;;;;;;5.50;4.97;;;;;;;;;;6090672;23;20350;-76
2024/03/14 12:20:47;;;;;;;8.90;5.63;;;;;;;;;;6090837;23;20086;-75
2024/03/14 12:23:16;;;;;;;;;;;;;;;;;;6139967;22;20017;-76
2024/03/14 12:25:50;;;;;;;7.07;5.50;;;;;;;;;;6130128;23;19913;-76
2024/03/14 12:28:16;;;;;;;5.72;5.22;;;;;;;;;;6059922;23;20010;-76
2024/03/14 12:30:45;;;;;;;8.38;6.03;;;;;;;;;;6051198;23;20059;-77
2024/03/14 12:33:14;;;;;;;8.52;5.93;;;;;;;;;;6069867;23;20079;-77
2024/03/14 12:36:26;;;;;;;7.72;5.95;;;;;;;;;;6119773;23;20034;-76
2024/03/14 12:38:53;;;;;;;7.38;5.60;;;;;;;;;;6071040;23;20076;-76
2024/03/14 12:41:23;;;;;;;7.03;5.00;;;;;;;;;;6070387;23;20452;-76
2024/03/14 12:43:51;;;;;;;4.80;4.40;;;;;;;;;;6226480;22;20308;-76
2024/03/14 12:46:52;;;;;;;8.48;5.53;;;;;;;;;;6272144;22;20007;-77
2024/03/14 12:49:21;;;;;;;6.43;5.47;;;;;;;;;;6245317;22;20015;-76
2024/03/14 12:51:57;;;;;;;7.05;5.03;;;;;;;;;;6197592;22;20011;-76
2024/03/14 12:54:32;;;;;;;4.95;4.47;;;;;;;;;;6247005;22;20081;-75
2024/03/14 12:56:59;;;;;;;5.38;4.65;;;;;;;;;;6196038;22;20012;-75
2024/03/14 12:59:25;;;;;;;5.82;4.97;;;;;;;;;;6196109;22;20102;-75
2024/03/14 13:01:53;;;;;;;7.13;5.22;;;;;;;;;;6215123;22;20003;-76
2024/03/14 13:04:40;;;;;;;6.38;5.07;;;;;;;;;;6224884;22;20011;-76
2024/03/14 13:07:11;;;;;;;6.50;5.67;;;;;;;;;;6194429;22;20007;-76
2024/03/14 13:09:37;;;;;;;7.68;5.50;;;;;;;;;;6219498;22;20710;-77
2024/03/14 13:12:22;;;;;;;5.30;4.80;;;;;;;;;;6218743;22;20019;-76
2024/03/14 13:15:16;;;;;;;6.57;5.88;;;;;;;;;;6217961;22;20033;-75
2024/03/14 13:17:48;;;;;;;6.30;5.18;;;;;;;;;;6270354;22;20007;-76
2024/03/14 13:20:14;;;;;;;6.95;5.40;;;;;;;;;;6193588;22;20043;-77
2024/03/14 13:22:40;;;;;;;5.65;4.82;;;;;;;;;;6218172;22;20015;-76
2024/03/14 13:25:07;;;;;;;10.02;6.55;;;;;;;;;;6218723;22;20012;-76
2024/03/14 13:27:34;;;;;;;6.65;5.22;;;;;;;;;;6218203;22;20059;-76
2024/03/14 13:30:21;;;;;;;6.68;4.60;;;;;;;;;;6247880;22;20008;-75
2024/03/14 13:32:51;;;;;;;6.22;5.10;;;;;;;;;;6217671;22;20024;-77
2024/03/14 13:35:21;;;;;;;6.43;5.07;;;;;;;;;;6196876;22;20215;-78
2024/03/14 13:37:50;;;;;;;5.00;4.47;;;;;;;;;;6271480;22;20012;-78
2024/03/14 13:40:16;;;;;;;5.20;4.70;;;;;;;;;;6269021;22;20266;-77
2024/03/14 13:42:52;;;;;;;5.43;4.70;;;;;;;;;;6219528;22;20090;-77
2024/03/14 13:45:28;;;;;;;5.32;4.82;;;;;;;;;;6223309;22;20023;-77
2024/03/14 13:47:58;;;;;;;7.00;5.57;;;;;;;;;;6218553;22;20015;-77
2024/03/14 13:50:34;;;;;;;9.38;4.50;;;;;;;;;;6197293;22;20014;-78
2024/03/14 13:53:01;;;;;;;8.68;4.65;;;;;;;;;;6269360;22;20020;-77
2024/03/14 13:55:31;;;;;;;5.13;4.65;;;;;;;;;;6218996;22;20012;-77
2024/03/14 13:58:23;;;;;;;7.40;5.60;;;;;;;;;;6194113;22;20391;-77
2024/03/14 14:00:56;;;;;;;5.78;4.75;;;;;;;;;;6245116;22;20051;-77
2024/03/14 14:03:22;;;;;;;7.63;4.82;;;;;;;;;;6127519;23;20056;-77
2024/03/14 14:05:55;;;;;;;5.65;4.85;;;;;;;;;;6068739;23;20018;-78
2024/03/14 14:08:55;;;;;;;8.23;4.85;;;;;;;;;;6115470;23;20084;-78
2024/03/14 14:11:39;;;;;;;6.10;5.50;;;;;;;;;;6095813;23;20089;-77
2024/03/14 14:14:14;;;;;;;5.45;4.90;;;;;;;;;;6040190;23;20022;-78
2024/03/14 14:16:45;;;;;;;5.28;4.40;;;;;;;;;;6168665;23;20018;-78
2024/03/14 14:19:13;;;;;;;;;;;;;;;;;;6041969;23;20558;-78
2024/03/14 14:21:39;;;;;;;6.10;4.90;;;;;;;;;;6165494;23;19951;-77
2024/03/14 14:24:08;;;;;;;5.55;5.03;;;;;;;;;;6195323;22;20514;-78
2024/03/14 14:26:34;;;;;;;11.60;5.72;;;;;;;;;;6219814;22;20007;-75
2024/03/14 14:29:04;;;;;;;7.18;5.50;;;;;;;;;;6220474;22;20008;-76
2024/03/14 14:31:30;;;;;;;8.70;6.95;;;;;;;;;;6220020;22;20008;-75
2024/03/14 14:33:56;;;;;;;8.68;5.78;;;;;;;;;;6194039;22;20107;-78
2024/03/14 14:36:22;;;;;;;10.13;6.38;;;;;;;;;;6180525;22;20015;-77
2024/03/14 14:38:53;;;;;;;8.10;6.47;;;;;;;;;;6194333;22;20046;-75
2024/03/14 14:41:19;;;;;;;11.77;6.07;;;;;;;;;;6219763;22;20023;-78
2024/03/14 14:43:45;;;;;;;8.25;5.47;;;;;;;;;;6163184;22;20080;-75
2024/03/14 14:46:14;;;;;;;7.03;5.32;;;;;;;;;;6162356;23;20515;-76